Time;durP1;ratioP1;P1;durP2;ratioP2;P2;SDS_P1;SDS_P2;PMS_P1;PMS_P2;Temp;Humidity;BMP_temperature;BMP_pressure;BME280_temperature;BME280_humidity;BME280_pressure;Samples;Min_cycle;Max_cycle;Signal;HPM_P1;HPM_P2
2021/10/22 15:16:41;;;;;;;;;;;15.50;61.30;;;;;;5071045;28;19921;-92
2021/10/22 15:19:06;;;;;;;;;;;15.30;62.80;;;;;;5071240;28;20323;-92
2021/10/22 15:21:32;;;;;;;;;;;15.30;63.70;;;;;;5053322;28;19916;-92
2021/10/22 15:23:58;;;;;;;;;;;15.50;64.10;;;;;;5053217;28;20374;-92
2021/10/22 15:26:24;;;;;;;;;;;15.60;64.30;;;;;;5071067;28;19912;-94
2021/10/22 15:28:50;;;;;;;;;;;15.70;64.40;;;;;;5053191;28;20063;-93
2021/10/22 15:31:16;;;;;;;;;;;15.70;64.30;;;;;;5053353;28;19909;-93
2021/10/22 15:33:42;;;;;;;;;;;15.80;64.50;;;;;;5071085;28;19913;-92
2021/10/22 15:36:08;;;;;;;;;;;15.80;64.50;;;;;;5052607;28;19913;-93
2021/10/22 15:38:34;;;;;;;;;;;15.70;64.70;;;;;;5052981;28;19919;-93
2021/10/22 15:40:59;;;;;;;;;;;15.70;64.70;;;;;;5070916;28;19909;-91
2021/10/22 15:43:25;;;;;;;;;;;15.70;64.90;;;;;;5070489;28;19909;-91
2021/10/22 15:45:52;;;;;;;;;;;15.60;65.10;;;;;;5070726;28;19925;-93
2021/10/22 15:48:18;;;;;;;;;;;15.70;65.00;;;;;;5053243;28;20253;-93
2021/10/22 15:50:46;;;;;;;;;;;15.70;65.10;;;;;;5052761;28;19908;-92
2021/10/22 15:53:11;;;;;;;;;;;15.60;65.10;;;;;;5053095;28;19936;-94
2021/10/22 15:55:37;;;;;;;;;;;15.60;65.10;;;;;;5048148;28;20361;-92
2021/10/22 15:58:08;;;;;;;;;;;15.50;65.00;;;;;;5052621;28;19963;-92
2021/10/22 16:00:34;;;;;;;;;;;15.50;65.10;;;;;;5052532;28;19915;-92
2021/10/22 16:03:02;;;;;;;;;;;15.50;65.10;;;;;;5053124;28;19912;-93
2021/10/22 16:05:27;;;;;;;;;;;15.50;65.30;;;;;;5052847;28;19915;-93
2021/10/22 16:07:59;;;;;;;;;;;15.40;65.20;;;;;;5052531;28;19909;-92
2021/10/22 16:10:39;;;;;;;;;;;15.40;65.30;;;;;;5068093;28;19955;-91
2021/10/22 16:13:12;;;;;;;;;;;15.30;66.00;;;;;;5052357;28;20296;-92
2021/10/22 16:15:43;;;;;;;;;;;15.10;65.50;;;;;;5051878;28;19925;-92
2021/10/22 16:18:08;;;;;;;;;;;14.90;65.80;;;;;;5050340;28;19913;-92
2021/10/22 16:20:34;;;;;;;;;;;14.80;66.20;;;;;;5070016;28;19938;-92
2021/10/22 16:23:00;;;;;;;;;;;14.70;66.40;;;;;;5052494;28;19956;-92
2021/10/22 16:25:26;;;;;;;;;;;14.60;66.60;;;;;;5052096;28;19917;-93
2021/10/22 16:27:52;;;;;;;;;;;14.40;66.80;;;;;;5057499;28;19916;-93
2021/10/22 16:30:17;;;;;;;;;;;14.30;67.20;;;;;;5038406;28;19920;-91
2021/10/22 16:32:43;;;;;;;;;;;14.20;67.40;;;;;;5056191;28;20289;-94
2021/10/22 16:37:54;;;;;;;;;;;14.00;67.90;;;;;;5056922;28;19919;-95
2021/10/22 16:40:20;;;;;;;;;;;14.00;68.10;;;;;;5038720;28;19909;-94
2021/10/22 16:42:45;;;;;;;;;;;13.90;68.30;;;;;;5038889;28;20288;-91
2021/10/22 16:45:15;;;;;;;;;;;13.80;68.50;;;;;;5056586;28;19913;-94
2021/10/22 16:47:42;;;;;;;;;;;13.80;68.70;;;;;;5056359;28;20293;-93
2021/10/22 16:50:09;;;;;;;;;;;13.80;69.00;;;;;;5038313;28;20427;-92
2021/10/22 16:52:39;;;;;;;;;;;13.80;69.10;;;;;;5038379;28;19917;-92
2021/10/22 16:55:06;;;;;;;;;;;13.80;69.20;;;;;;5038617;28;19952;-92
2021/10/22 16:57:32;;;;;;;;;;;13.70;69.20;;;;;;5056561;28;19920;-91
2021/10/22 16:59:57;;;;;;;;;;;13.70;69.30;;;;;;5038492;28;19909;-92
2021/10/22 17:02:23;;;;;;;;;;;13.70;69.30;;;;;;5038575;28;19940;-91
2021/10/22 17:04:48;;;;;;;;;;;13.60;69.40;;;;;;5056381;28;20353;-90
2021/10/22 17:07:22;;;;;;;;;;;13.50;69.40;;;;;;5056254;28;19909;-91
2021/10/22 17:09:48;;;;;;;;;;;13.40;69.60;;;;;;5052657;28;19913;-93
2021/10/22 17:12:18;;;;;;;;;;;13.30;69.70;;;;;;5029407;28;20416;-92
2021/10/22 17:14:43;;;;;;;;;;;13.20;70.00;;;;;;5037985;28;19924;-93
2021/10/22 17:17:09;;;;;;;;;;;13.10;70.10;;;;;;5056077;28;19915;-94
2021/10/22 17:19:34;;;;;;;;;;;13.00;70.30;;;;;;5038276;28;19915;-94
2021/10/22 17:22:00;;;;;;;;;;;13.00;70.60;;;;;;5038249;28;20269;-94
2021/10/22 17:24:26;;;;;;;;;;;13.00;70.60;;;;;;5038213;28;19909;-94
2021/10/22 17:26:51;;;;;;;;;;;13.00;70.60;;;;;;5038015;28;19913;-93
2021/10/22 17:29:17;;;;;;;;;;;12.90;70.60;;;;;;5038016;28;19923;-94
2021/10/22 17:31:43;;;;;;;;;;;12.80;70.70;;;;;;5037978;28;19909;-94
2021/10/22 17:34:08;;;;;;;;;;;12.70;70.90;;;;;;5037856;28;19909;-94
2021/10/22 17:36:34;;;;;;;;;;;12.60;71.10;;;;;;5037857;28;20326;-93
2021/10/22 17:38:59;;;;;;;;;;;12.50;71.30;;;;;;5036862;28;19909;-92
2021/10/22 17:41:25;;;;;;;;;;;12.40;71.50;;;;;;5033197;28;20354;-93
2021/10/22 17:43:52;;;;;;;;;;;12.30;71.70;;;;;;5028542;28;19920;-93
2021/10/22 17:46:18;;;;;;;;;;;12.20;72.00;;;;;;5018221;28;19916;-93
2021/10/22 17:48:44;;;;;;;;;;;12.10;72.30;;;;;;5017922;28;19909;-94
2021/10/22 17:51:10;;;;;;;;;;;12.00;72.60;;;;;;5018953;28;19956;-93
2021/10/22 17:53:37;;;;;;;;;;;11.90;72.90;;;;;;5019553;28;19956;-92
2021/10/22 17:56:06;;;;;;;;;;;11.90;73.30;;;;;;5026282;28;19980;-91
2021/10/22 17:58:32;;;;;;;;;;;11.80;73.40;;;;;;5040271;28;19951;-91
2021/10/22 18:00:58;;;;;;;;;;;11.80;73.70;;;;;;5053979;28;19900;-93
2021/10/22 18:03:24;;;;;;;;;;;11.70;73.80;;;;;;5056831;28;19905;-93
2021/10/22 18:05:50;;;;;;;;;;;11.70;74.00;;;;;;5043099;28;19909;-92
2021/10/22 19:27:18;;;;;;;;;;;10.00;73.30;;;;;;5053234;28;19925;-95
2021/10/22 19:29:43;;;;;;;;;;;10.00;74.80;;;;;;5035020;28;20019;-95
2021/10/22 19:32:09;;;;;;;;;;;10.10;76.20;;;;;;5023730;28;19948;-96
2021/10/22 19:34:35;;;;;;;;;;;10.20;77.00;;;;;;5016981;28;19952;-96
2021/10/22 19:37:02;;;;;;;;;;;10.30;77.70;;;;;;5016086;28;19914;-96
2021/10/22 19:39:27;;;;;;;;;;;10.50;78.10;;;;;;5015086;28;20281;-95
2021/10/22 20:04:07;;;;;;;;;;;11.00;73.20;;;;;;5070734;28;20336;-93
